Historyczne dane pomiarowe

Dodano dane terminowe – wersja testowa.

Dane z okresu 1951-2019

Wersja bazy: 1.34 [2019-03-16, lista zmian], aktualizacja planowana na 2019-04-15

Dane meteo z obszaru Polski uzyskane na podstawie danych udostępnionych przez Instytut Meteorologii i Gospodarki Wodnej – Państwowy Instytut Badawczy.

 

Wybierz Datę:    

       

TemperaturaWilgotnośćZachmurzenieWiatrCiśnienieWidzialnośćZjawiska
 Data    tng td wb rh cc ccl cl cm ch dir g1 g2 mslp ppp      
1999-06-22 00:00:00 15.4--- 14.4 14.894wxwxwx4wx--1006.7 984.8 0.8---wxw1
1999-06-22 01:00:00 14.8--- 14.1 14.496wxwxwx3wx--1006.9 985.0----wxw1
1999-06-22 02:00:00 14.3--- 13.8 14.097wxwxwx4wx--1007.1 985.1----wxw1
1999-06-22 03:00:00 14.4--- 13.7 14.096wxwxwx3wx--1007.2 985.2----wxw1
1999-06-22 04:00:00 14.6--- 13.9 14.296wxwxwx4wx--1007.2 985.3----wx
1999-06-22 05:00:00 14.8--- 14.1 14.496wxwxwx5wx--1007.3 985.4----wx
1999-06-22 06:00:00 15.0--- 14.5 14.797wxwxwx5wx--1007.4 985.5 4.1---wxw1
1999-06-22 07:00:00 15.2--- 14.5 14.896wxwxwx4wx--1007.3 985.4----wx
1999-06-22 08:00:00 16.1--- 14.6 15.291wxwxwx6wx--1007.4 985.6----wx
1999-06-22 09:00:00 16.4--- 15.8 16.096wxwxwx5wx--1007.8 986.0----wx
1999-06-22 10:00:00 17.7--- 16.1 16.790wxwxwx2wx--1007.9 986.2----wx
1999-06-22 11:00:00 18.8--- 16.9 17.689wxwxwx3wx--1007.5 985.9----wx
1999-06-22 12:00:00 20.2--- 17.4 18.484wxwxwx4wx--1006.8 985.3 0.0---wx
1999-06-22 13:00:00 20.6--- 16.7 18.178wxwxwx5wx--1006.3 984.8----wx
1999-06-22 14:00:00 21.5--- 17.4 18.877wxwxwx5wx--1005.7 984.3----wx
1999-06-22 15:00:00 22.0--- 17.4 19.075wxwxwx5wx--1005.8 984.4----wx
1999-06-22 16:00:00 22.0--- 17.7 19.277wxwxwx4wx--1005.8 984.4----wx
1999-06-22 17:00:00 17.0--- 15.4 16.090wxwxwx3wx--1007.3 985.5----wxw1
1999-06-22 18:00:00 16.2--- 14.9 15.492wxwxwx3wx--1006.4 984.6 11.0---wxw1
1999-06-22 19:00:00 17.0--- 15.4 16.090wxwxwxwx3wx--1006.1 984.4----wxw1
1999-06-22 20:00:00 17.2--- 16.3 16.694wxwxwxwx3wx--1006.1 984.4----wxw1
1999-06-22 21:00:00 17.4--- 16.1 16.692wxwxwx3wx--1006.4 984.7----wxw1
1999-06-22 22:00:00 17.0--- 15.4 16.090wxwxwx3wx--1006.0 984.3----wx
1999-06-22 23:00:00 17.0--- 15.4 16.090wxwxwx3wx--1005.9 984.2----wx

 

Źródłem pochodzenia danych jest Instytut Meteorologii i Gospodarki Wodnej – Państwowy Instytut Badawczy. Dane Instytutu Meteorologii i Gospodarki Wodnej – Państwowego Instytutu Badawczego zostały przetworzone.

Dane źródłowe można odnaleźć na stronie https://dane.imgw.pl